sensor_id;sensor_type;location;lat;lon;timestamp;P1;durP1;ratioP1;P2;durP2;ratioP2
17858;SDS011;35426;30.698;104.050;2023-03-21T00:01:03;90.53;;;47.27;;
17858;SDS011;35426;30.698;104.050;2023-03-21T00:03:39;90.50;;;46.00;;
17858;SDS011;35426;30.698;104.050;2023-03-21T00:06:19;91.77;;;45.93;;
17858;SDS011;35426;30.698;104.050;2023-03-21T00:09:01;90.57;;;46.63;;
17858;SDS011;35426;30.698;104.050;2023-03-21T00:11:38;92.80;;;47.30;;
17858;SDS011;35426;30.698;104.050;2023-03-21T00:14:16;84.00;;;44.87;;
17858;SDS011;35426;30.698;104.050;2023-03-21T00:16:53;86.90;;;44.77;;
17858;SDS011;35426;30.698;104.050;2023-03-21T00:19:29;87.87;;;47.00;;
17858;SDS011;35426;30.698;104.050;2023-03-21T00:22:12;83.30;;;44.93;;
17858;SDS011;35426;30.698;104.050;2023-03-21T00:24:51;89.33;;;43.60;;
17858;SDS011;35426;30.698;104.050;2023-03-21T00:27:29;81.73;;;44.93;;
17858;SDS011;35426;30.698;104.050;2023-03-21T00:30:25;87.07;;;46.43;;
17858;SDS011;35426;30.698;104.050;2023-03-21T00:33:02;81.77;;;43.80;;
17858;SDS011;35426;30.698;104.050;2023-03-21T00:35:52;84.60;;;44.23;;
17858;SDS011;35426;30.698;104.050;2023-03-21T00:38:38;81.87;;;44.33;;
17858;SDS011;35426;30.698;104.050;2023-03-21T00:41:18;83.53;;;44.77;;
17858;SDS011;35426;30.698;104.050;2023-03-21T00:44:16;89.10;;;44.03;;
17858;SDS011;35426;30.698;104.050;2023-03-21T00:46:54;93.30;;;45.10;;
17858;SDS011;35426;30.698;104.050;2023-03-21T00:49:35;80.50;;;45.20;;
17858;SDS011;35426;30.698;104.050;2023-03-21T00:52:19;74.70;;;43.40;;
17858;SDS011;35426;30.698;104.050;2023-03-21T00:55:09;82.37;;;44.83;;
17858;SDS011;35426;30.698;104.050;2023-03-21T00:57:58;88.47;;;45.83;;
17858;SDS011;35426;30.698;104.050;2023-03-21T01:00:36;89.27;;;46.93;;
17858;SDS011;35426;30.698;104.050;2023-03-21T01:03:13;86.40;;;47.40;;
17858;SDS011;35426;30.698;104.050;2023-03-21T01:05:55;79.43;;;45.43;;
17858;SDS011;35426;30.698;104.050;2023-03-21T01:08:42;94.50;;;49.23;;
17858;SDS011;35426;30.698;104.050;2023-03-21T01:11:23;91.20;;;48.77;;
17858;SDS011;35426;30.698;104.050;2023-03-21T01:14:06;93.13;;;50.93;;
17858;SDS011;35426;30.698;104.050;2023-03-21T01:16:51;89.43;;;50.47;;
17858;SDS011;35426;30.698;104.050;2023-03-21T01:19:28;93.30;;;53.90;;
17858;SDS011;35426;30.698;104.050;2023-03-21T01:22:21;96.50;;;50.90;;
17858;SDS011;35426;30.698;104.050;2023-03-21T01:25:08;95.30;;;52.20;;
17858;SDS011;35426;30.698;104.050;2023-03-21T01:27:55;92.27;;;53.13;;
17858;SDS011;35426;30.698;104.050;2023-03-21T01:30:34;102.77;;;55.57;;
17858;SDS011;35426;30.698;104.050;2023-03-21T01:33:11;101.17;;;53.43;;
17858;SDS011;35426;30.698;104.050;2023-03-21T01:35:50;94.97;;;54.67;;
17858;SDS011;35426;30.698;104.050;2023-03-21T01:38:41;98.77;;;54.20;;
17858;SDS011;35426;30.698;104.050;2023-03-21T01:41:20;94.93;;;54.37;;
17858;SDS011;35426;30.698;104.050;2023-03-21T01:44:20;96.63;;;53.33;;
17858;SDS011;35426;30.698;104.050;2023-03-21T01:47:03;101.80;;;55.00;;
17858;SDS011;35426;30.698;104.050;2023-03-21T01:49:46;99.67;;;55.77;;
17858;SDS011;35426;30.698;104.050;2023-03-21T01:52:53;99.10;;;55.83;;
17858;SDS011;35426;30.698;104.050;2023-03-21T01:55:35;93.70;;;54.60;;
17858;SDS011;35426;30.698;104.050;2023-03-21T01:58:31;101.87;;;56.33;;
17858;SDS011;35426;30.698;104.050;2023-03-21T02:01:43;98.93;;;56.17;;
17858;SDS011;35426;30.698;104.050;2023-03-21T02:04:27;97.60;;;56.97;;
17858;SDS011;35426;30.698;104.050;2023-03-21T02:07:14;102.33;;;54.30;;
17858;SDS011;35426;30.698;104.050;2023-03-21T02:10:11;98.73;;;55.00;;
17858;SDS011;35426;30.698;104.050;2023-03-21T02:12:55;97.10;;;54.47;;
17858;SDS011;35426;30.698;104.050;2023-03-21T02:15:41;100.97;;;55.97;;
17858;SDS011;35426;30.698;104.050;2023-03-21T02:18:31;99.47;;;56.27;;
17858;SDS011;35426;30.698;104.050;2023-03-21T02:24:38;91.00;;;54.07;;
17858;SDS011;35426;30.698;104.050;2023-03-21T02:27:50;88.37;;;49.73;;
17858;SDS011;35426;30.698;104.050;2023-03-21T02:30:42;88.13;;;50.70;;
17858;SDS011;35426;30.698;104.050;2023-03-21T02:36:55;93.13;;;49.70;;
17858;SDS011;35426;30.698;104.050;2023-03-21T02:39:44;94.27;;;51.77;;
17858;SDS011;35426;30.698;104.050;2023-03-21T02:42:31;95.37;;;52.77;;
17858;SDS011;35426;30.698;104.050;2023-03-21T02:45:26;104.17;;;53.67;;
17858;SDS011;35426;30.698;104.050;2023-03-21T02:48:06;83.93;;;51.30;;
17858;SDS011;35426;30.698;104.050;2023-03-21T02:51:01;93.20;;;51.57;;
17858;SDS011;35426;30.698;104.050;2023-03-21T02:53:44;83.00;;;49.50;;
17858;SDS011;35426;30.698;104.050;2023-03-21T02:56:48;84.73;;;48.70;;
17858;SDS011;35426;30.698;104.050;2023-03-21T02:59:28;87.93;;;49.17;;
17858;SDS011;35426;30.698;104.050;2023-03-21T03:02:29;84.07;;;49.27;;
17858;SDS011;35426;30.698;104.050;2023-03-21T03:05:14;89.97;;;50.27;;
17858;SDS011;35426;30.698;104.050;2023-03-21T03:07:57;91.70;;;51.10;;
17858;SDS011;35426;30.698;104.050;2023-03-21T03:10:48;83.37;;;50.30;;
17858;SDS011;35426;30.698;104.050;2023-03-21T03:13:49;88.23;;;51.40;;
17858;SDS011;35426;30.698;104.050;2023-03-21T03:17:08;85.60;;;49.80;;
17858;SDS011;35426;30.698;104.050;2023-03-21T03:20:05;81.63;;;49.17;;
17858;SDS011;35426;30.698;104.050;2023-03-21T03:22:56;82.40;;;48.63;;
17858;SDS011;35426;30.698;104.050;2023-03-21T03:25:50;89.20;;;52.17;;
17858;SDS011;35426;30.698;104.050;2023-03-21T03:28:34;84.73;;;48.90;;
17858;SDS011;35426;30.698;104.050;2023-03-21T03:31:21;87.03;;;50.07;;
17858;SDS011;35426;30.698;104.050;2023-03-21T03:34:04;80.73;;;47.90;;
17858;SDS011;35426;30.698;104.050;2023-03-21T03:36:43;80.90;;;48.13;;
17858;SDS011;35426;30.698;104.050;2023-03-21T03:39:26;90.87;;;51.57;;
17858;SDS011;35426;30.698;104.050;2023-03-21T03:42:13;83.77;;;50.07;;
17858;SDS011;35426;30.698;104.050;2023-03-21T03:45:03;90.57;;;50.63;;
17858;SDS011;35426;30.698;104.050;2023-03-21T03:47:45;85.67;;;50.37;;
17858;SDS011;35426;30.698;104.050;2023-03-21T03:50:32;94.43;;;51.77;;
17858;SDS011;35426;30.698;104.050;2023-03-21T03:53:18;87.77;;;52.10;;
17858;SDS011;35426;30.698;104.050;2023-03-21T03:56:05;88.03;;;50.30;;
17858;SDS011;35426;30.698;104.050;2023-03-21T03:58:49;93.50;;;50.43;;
17858;SDS011;35426;30.698;104.050;2023-03-21T04:01:43;93.33;;;52.30;;
17858;SDS011;35426;30.698;104.050;2023-03-21T04:04:20;92.13;;;51.77;;
17858;SDS011;35426;30.698;104.050;2023-03-21T04:06:58;108.00;;;55.20;;
17858;SDS011;35426;30.698;104.050;2023-03-21T04:09:38;83.50;;;49.13;;
17858;SDS011;35426;30.698;104.050;2023-03-21T04:12:19;84.83;;;49.03;;
17858;SDS011;35426;30.698;104.050;2023-03-21T04:15:17;90.87;;;52.53;;
17858;SDS011;35426;30.698;104.050;2023-03-21T04:18:02;89.17;;;50.63;;
17858;SDS011;35426;30.698;104.050;2023-03-21T04:20:39;87.00;;;52.47;;
17858;SDS011;35426;30.698;104.050;2023-03-21T04:23:27;88.53;;;52.97;;
17858;SDS011;35426;30.698;104.050;2023-03-21T04:26:14;92.67;;;52.53;;
17858;SDS011;35426;30.698;104.050;2023-03-21T04:29:09;89.20;;;52.80;;
17858;SDS011;35426;30.698;104.050;2023-03-21T04:32:18;88.13;;;50.60;;
17858;SDS011;35426;30.698;104.050;2023-03-21T04:35:09;86.20;;;50.00;;
17858;SDS011;35426;30.698;104.050;2023-03-21T04:37:53;88.87;;;49.87;;
17858;SDS011;35426;30.698;104.050;2023-03-21T04:40:31;89.80;;;50.97;;
17858;SDS011;35426;30.698;104.050;2023-03-21T04:43:17;80.47;;;48.20;;
17858;SDS011;35426;30.698;104.050;2023-03-21T04:45:54;89.00;;;50.30;;
17858;SDS011;35426;30.698;104.050;2023-03-21T04:48:38;88.17;;;51.13;;
17858;SDS011;35426;30.698;104.050;2023-03-21T04:51:15;90.33;;;51.87;;
17858;SDS011;35426;30.698;104.050;2023-03-21T04:53:54;92.20;;;52.27;;
17858;SDS011;35426;30.698;104.050;2023-03-21T04:56:34;90.87;;;52.47;;
17858;SDS011;35426;30.698;104.050;2023-03-21T04:59:13;76.60;;;48.53;;
17858;SDS011;35426;30.698;104.050;2023-03-21T05:01:58;77.43;;;47.97;;
17858;SDS011;35426;30.698;104.050;2023-03-21T05:04:40;73.77;;;47.33;;
17858;SDS011;35426;30.698;104.050;2023-03-21T05:07:18;78.30;;;49.40;;
17858;SDS011;35426;30.698;104.050;2023-03-21T05:09:59;75.97;;;47.20;;
17858;SDS011;35426;30.698;104.050;2023-03-21T05:12:41;73.77;;;46.50;;
17858;SDS011;35426;30.698;104.050;2023-03-21T05:15:27;81.40;;;48.23;;
17858;SDS011;35426;30.698;104.050;2023-03-21T05:18:08;80.27;;;47.50;;
17858;SDS011;35426;30.698;104.050;2023-03-21T05:21:10;73.03;;;47.20;;
17858;SDS011;35426;30.698;104.050;2023-03-21T05:23:50;87.30;;;49.40;;
17858;SDS011;35426;30.698;104.050;2023-03-21T05:26:29;85.40;;;51.47;;
17858;SDS011;35426;30.698;104.050;2023-03-21T05:29:16;92.60;;;54.77;;
17858;SDS011;35426;30.698;104.050;2023-03-21T05:32:05;96.00;;;53.83;;
17858;SDS011;35426;30.698;104.050;2023-03-21T05:34:42;89.07;;;51.03;;
17858;SDS011;35426;30.698;104.050;2023-03-21T05:37:30;93.47;;;52.93;;
17858;SDS011;35426;30.698;104.050;2023-03-21T05:40:27;91.20;;;52.30;;
17858;SDS011;35426;30.698;104.050;2023-03-21T05:43:06;86.33;;;50.80;;
17858;SDS011;35426;30.698;104.050;2023-03-21T05:45:43;89.87;;;52.90;;
17858;SDS011;35426;30.698;104.050;2023-03-21T05:48:21;96.33;;;52.73;;
17858;SDS011;35426;30.698;104.050;2023-03-21T05:51:12;92.07;;;53.40;;
17858;SDS011;35426;30.698;104.050;2023-03-21T05:54:01;93.97;;;51.67;;
17858;SDS011;35426;30.698;104.050;2023-03-21T05:56:48;87.87;;;50.87;;
17858;SDS011;35426;30.698;104.050;2023-03-21T05:59:52;92.43;;;52.23;;
17858;SDS011;35426;30.698;104.050;2023-03-21T06:02:43;94.47;;;55.57;;
17858;SDS011;35426;30.698;104.050;2023-03-21T06:05:44;95.17;;;55.17;;
17858;SDS011;35426;30.698;104.050;2023-03-21T06:08:29;99.77;;;53.40;;
17858;SDS011;35426;30.698;104.050;2023-03-21T06:11:08;94.00;;;54.27;;
17858;SDS011;35426;30.698;104.050;2023-03-21T06:14:22;106.33;;;56.17;;
17858;SDS011;35426;30.698;104.050;2023-03-21T06:17:32;98.37;;;51.07;;
17858;SDS011;35426;30.698;104.050;2023-03-21T06:20:13;91.70;;;51.23;;
17858;SDS011;35426;30.698;104.050;2023-03-21T06:23:12;94.23;;;52.90;;
17858;SDS011;35426;30.698;104.050;2023-03-21T06:26:10;101.30;;;53.73;;
17858;SDS011;35426;30.698;104.050;2023-03-21T06:28:56;93.63;;;54.03;;
17858;SDS011;35426;30.698;104.050;2023-03-21T06:31:34;91.13;;;51.93;;
17858;SDS011;35426;30.698;104.050;2023-03-21T06:34:18;101.90;;;53.67;;
17858;SDS011;35426;30.698;104.050;2023-03-21T06:37:03;94.60;;;52.57;;
17858;SDS011;35426;30.698;104.050;2023-03-21T06:39:47;95.33;;;53.70;;
17858;SDS011;35426;30.698;104.050;2023-03-21T06:42:34;94.07;;;54.53;;
17858;SDS011;35426;30.698;104.050;2023-03-21T06:45:17;95.10;;;55.03;;
17858;SDS011;35426;30.698;104.050;2023-03-21T06:48:42;95.13;;;52.53;;
17858;SDS011;35426;30.698;104.050;2023-03-21T06:51:24;98.80;;;51.80;;
17858;SDS011;35426;30.698;104.050;2023-03-21T06:54:16;100.73;;;53.87;;
17858;SDS011;35426;30.698;104.050;2023-03-21T06:57:21;93.43;;;51.30;;
17858;SDS011;35426;30.698;104.050;2023-03-21T07:00:07;104.43;;;55.37;;
17858;SDS011;35426;30.698;104.050;2023-03-21T07:02:47;99.23;;;54.40;;
17858;SDS011;35426;30.698;104.050;2023-03-21T07:05:36;101.60;;;55.93;;
17858;SDS011;35426;30.698;104.050;2023-03-21T07:08:15;90.77;;;52.87;;
17858;SDS011;35426;30.698;104.050;2023-03-21T07:10:59;90.90;;;53.03;;
17858;SDS011;35426;30.698;104.050;2023-03-21T07:13:37;93.27;;;54.03;;
17858;SDS011;35426;30.698;104.050;2023-03-21T07:16:25;99.80;;;55.23;;
17858;SDS011;35426;30.698;104.050;2023-03-21T07:19:13;100.03;;;54.20;;
17858;SDS011;35426;30.698;104.050;2023-03-21T07:21:58;97.40;;;55.90;;
17858;SDS011;35426;30.698;104.050;2023-03-21T07:24:38;104.70;;;56.50;;
17858;SDS011;35426;30.698;104.050;2023-03-21T07:27:42;100.13;;;55.97;;
17858;SDS011;35426;30.698;104.050;2023-03-21T07:30:25;106.13;;;55.70;;
17858;SDS011;35426;30.698;104.050;2023-03-21T07:33:06;102.27;;;56.57;;
17858;SDS011;35426;30.698;104.050;2023-03-21T07:35:47;103.90;;;57.03;;
17858;SDS011;35426;30.698;104.050;2023-03-21T07:38:28;105.50;;;57.77;;
17858;SDS011;35426;30.698;104.050;2023-03-21T07:41:13;101.93;;;56.80;;
17858;SDS011;35426;30.698;104.050;2023-03-21T07:44:17;110.90;;;56.83;;
17858;SDS011;35426;30.698;104.050;2023-03-21T07:47:05;112.43;;;56.63;;
17858;SDS011;35426;30.698;104.050;2023-03-21T07:49:56;108.57;;;58.67;;
17858;SDS011;35426;30.698;104.050;2023-03-21T07:52:47;101.70;;;54.57;;
17858;SDS011;35426;30.698;104.050;2023-03-21T07:55:35;109.20;;;57.90;;
17858;SDS011;35426;30.698;104.050;2023-03-21T07:58:15;111.03;;;57.57;;
17858;SDS011;35426;30.698;104.050;2023-03-21T08:01:05;110.47;;;57.73;;
17858;SDS011;35426;30.698;104.050;2023-03-21T08:03:58;113.80;;;56.03;;
17858;SDS011;35426;30.698;104.050;2023-03-21T08:06:56;106.57;;;55.57;;
17858;SDS011;35426;30.698;104.050;2023-03-21T08:09:45;106.77;;;56.70;;
17858;SDS011;35426;30.698;104.050;2023-03-21T08:12:29;118.10;;;61.33;;
17858;SDS011;35426;30.698;104.050;2023-03-21T08:15:08;112.13;;;59.43;;
17858;SDS011;35426;30.698;104.050;2023-03-21T08:17:50;111.33;;;57.83;;
17858;SDS011;35426;30.698;104.050;2023-03-21T08:27:05;113.27;;;57.57;;
17858;SDS011;35426;30.698;104.050;2023-03-21T08:29:43;107.37;;;56.90;;
17858;SDS011;35426;30.698;104.050;2023-03-21T08:32:23;104.80;;;57.07;;
17858;SDS011;35426;30.698;104.050;2023-03-21T08:35:11;111.63;;;57.43;;
17858;SDS011;35426;30.698;104.050;2023-03-21T08:37:52;114.13;;;57.47;;
17858;SDS011;35426;30.698;104.050;2023-03-21T08:40:37;109.83;;;58.60;;
17858;SDS011;35426;30.698;104.050;2023-03-21T08:43:20;132.70;;;57.63;;
17858;SDS011;35426;30.698;104.050;2023-03-21T08:45:59;125.23;;;58.37;;
17858;SDS011;35426;30.698;104.050;2023-03-21T08:48:51;120.37;;;57.87;;
17858;SDS011;35426;30.698;104.050;2023-03-21T08:51:32;114.07;;;57.53;;
17858;SDS011;35426;30.698;104.050;2023-03-21T08:54:18;107.00;;;56.67;;
17858;SDS011;35426;30.698;104.050;2023-03-21T08:57:04;113.40;;;56.37;;
17858;SDS011;35426;30.698;104.050;2023-03-21T08:59:41;121.10;;;57.60;;
17858;SDS011;35426;30.698;104.050;2023-03-21T09:02:18;110.13;;;57.90;;
17858;SDS011;35426;30.698;104.050;2023-03-21T09:04:57;118.63;;;59.10;;
17858;SDS011;35426;30.698;104.050;2023-03-21T09:07:41;116.53;;;58.00;;
17858;SDS011;35426;30.698;104.050;2023-03-21T09:10:21;108.63;;;56.63;;
17858;SDS011;35426;30.698;104.050;2023-03-21T09:13:09;120.57;;;58.57;;
17858;SDS011;35426;30.698;104.050;2023-03-21T09:15:47;107.90;;;57.77;;
17858;SDS011;35426;30.698;104.050;2023-03-21T09:18:26;119.93;;;57.73;;
17858;SDS011;35426;30.698;104.050;2023-03-21T09:21:15;123.37;;;59.77;;
17858;SDS011;35426;30.698;104.050;2023-03-21T09:23:53;109.17;;;56.43;;
17858;SDS011;35426;30.698;104.050;2023-03-21T09:26:36;112.33;;;57.63;;
17858;SDS011;35426;30.698;104.050;2023-03-21T09:29:16;110.80;;;59.13;;
17858;SDS011;35426;30.698;104.050;2023-03-21T09:31:53;129.27;;;63.83;;
17858;SDS011;35426;30.698;104.050;2023-03-21T09:34:35;117.13;;;59.70;;
17858;SDS011;35426;30.698;104.050;2023-03-21T09:37:12;130.23;;;61.93;;
17858;SDS011;35426;30.698;104.050;2023-03-21T09:39:50;117.73;;;59.30;;
17858;SDS011;35426;30.698;104.050;2023-03-21T09:42:34;114.87;;;60.37;;
17858;SDS011;35426;30.698;104.050;2023-03-21T09:45:19;120.63;;;59.23;;
17858;SDS011;35426;30.698;104.050;2023-03-21T09:48:06;122.03;;;60.10;;
17858;SDS011;35426;30.698;104.050;2023-03-21T09:51:01;119.90;;;59.47;;
17858;SDS011;35426;30.698;104.050;2023-03-21T09:53:38;123.53;;;59.50;;
17858;SDS011;35426;30.698;104.050;2023-03-21T09:56:23;118.57;;;58.80;;
17858;SDS011;35426;30.698;104.050;2023-03-21T09:59:03;124.17;;;59.27;;
17858;SDS011;35426;30.698;104.050;2023-03-21T10:01:46;126.33;;;59.13;;
17858;SDS011;35426;30.698;104.050;2023-03-21T10:04:27;117.20;;;57.00;;
17858;SDS011;35426;30.698;104.050;2023-03-21T10:07:15;120.10;;;56.87;;
17858;SDS011;35426;30.698;104.050;2023-03-21T10:10:00;124.17;;;59.93;;
17858;SDS011;35426;30.698;104.050;2023-03-21T10:12:39;122.30;;;58.43;;
17858;SDS011;35426;30.698;104.050;2023-03-21T10:15:18;120.67;;;59.70;;
17858;SDS011;35426;30.698;104.050;2023-03-21T10:18:00;125.00;;;59.10;;
17858;SDS011;35426;30.698;104.050;2023-03-21T10:20:50;123.97;;;58.63;;
17858;SDS011;35426;30.698;104.050;2023-03-21T10:23:28;121.23;;;58.73;;
17858;SDS011;35426;30.698;104.050;2023-03-21T10:26:06;117.87;;;58.87;;
17858;SDS011;35426;30.698;104.050;2023-03-21T10:28:49;121.13;;;59.93;;
17858;SDS011;35426;30.698;104.050;2023-03-21T10:31:28;128.17;;;61.00;;
17858;SDS011;35426;30.698;104.050;2023-03-21T10:34:12;128.17;;;59.53;;
17858;SDS011;35426;30.698;104.050;2023-03-21T10:36:53;128.20;;;59.33;;
17858;SDS011;35426;30.698;104.050;2023-03-21T10:39:33;132.33;;;60.63;;
17858;SDS011;35426;30.698;104.050;2023-03-21T10:42:17;124.10;;;59.60;;
17858;SDS011;35426;30.698;104.050;2023-03-21T10:44:59;133.83;;;60.13;;
17858;SDS011;35426;30.698;104.050;2023-03-21T10:47:38;121.97;;;59.10;;
17858;SDS011;35426;30.698;104.050;2023-03-21T10:50:52;124.00;;;59.33;;
17858;SDS011;35426;30.698;104.050;2023-03-21T10:53:38;125.23;;;60.83;;
17858;SDS011;35426;30.698;104.050;2023-03-21T10:56:22;131.53;;;60.80;;
17858;SDS011;35426;30.698;104.050;2023-03-21T10:59:06;125.47;;;60.23;;
17858;SDS011;35426;30.698;104.050;2023-03-21T11:01:53;123.53;;;59.57;;
17858;SDS011;35426;30.698;104.050;2023-03-21T11:04:31;130.70;;;61.83;;
17858;SDS011;35426;30.698;104.050;2023-03-21T11:07:13;128.63;;;62.33;;
17858;SDS011;35426;30.698;104.050;2023-03-21T11:10:06;129.93;;;64.43;;
17858;SDS011;35426;30.698;104.050;2023-03-21T11:13:01;128.23;;;63.63;;
17858;SDS011;35426;30.698;104.050;2023-03-21T11:15:48;135.53;;;63.97;;
17858;SDS011;35426;30.698;104.050;2023-03-21T11:18:31;129.67;;;64.00;;
17858;SDS011;35426;30.698;104.050;2023-03-21T11:21:14;134.70;;;65.23;;
17858;SDS011;35426;30.698;104.050;2023-03-21T11:24:10;129.20;;;62.57;;
17858;SDS011;35426;30.698;104.050;2023-03-21T11:26:56;123.70;;;63.23;;
17858;SDS011;35426;30.698;104.050;2023-03-21T11:29:37;132.93;;;63.67;;
17858;SDS011;35426;30.698;104.050;2023-03-21T11:32:22;137.37;;;66.03;;
17858;SDS011;35426;30.698;104.050;2023-03-21T11:35:06;139.87;;;67.03;;
17858;SDS011;35426;30.698;104.050;2023-03-21T11:37:55;138.27;;;64.03;;
17858;SDS011;35426;30.698;104.050;2023-03-21T11:40:50;139.87;;;65.43;;
17858;SDS011;35426;30.698;104.050;2023-03-21T11:43:41;139.20;;;65.40;;
17858;SDS011;35426;30.698;104.050;2023-03-21T11:46:32;139.37;;;65.33;;
17858;SDS011;35426;30.698;104.050;2023-03-21T11:49:21;138.67;;;65.70;;
17858;SDS011;35426;30.698;104.050;2023-03-21T11:52:01;139.90;;;65.20;;
17858;SDS011;35426;30.698;104.050;2023-03-21T11:55:09;144.27;;;67.63;;
17858;SDS011;35426;30.698;104.050;2023-03-21T11:58:19;145.00;;;65.90;;
17858;SDS011;35426;30.698;104.050;2023-03-21T12:01:14;139.93;;;65.83;;
17858;SDS011;35426;30.698;104.050;2023-03-21T12:04:06;144.47;;;66.90;;
17858;SDS011;35426;30.698;104.050;2023-03-21T12:07:01;140.33;;;67.73;;
17858;SDS011;35426;30.698;104.050;2023-03-21T12:09:55;143.23;;;67.30;;
17858;SDS011;35426;30.698;104.050;2023-03-21T12:12:45;141.67;;;69.43;;
17858;SDS011;35426;30.698;104.050;2023-03-21T12:15:41;141.33;;;67.73;;
17858;SDS011;35426;30.698;104.050;2023-03-21T12:21:36;146.43;;;70.63;;
17858;SDS011;35426;30.698;104.050;2023-03-21T12:24:24;154.33;;;71.70;;
17858;SDS011;35426;30.698;104.050;2023-03-21T12:27:18;144.10;;;67.63;;
17858;SDS011;35426;30.698;104.050;2023-03-21T12:30:21;143.77;;;67.83;;
17858;SDS011;35426;30.698;104.050;2023-03-21T12:33:23;156.53;;;71.40;;
17858;SDS011;35426;30.698;104.050;2023-03-21T12:36:30;140.10;;;69.57;;
17858;SDS011;35426;30.698;104.050;2023-03-21T12:39:22;150.70;;;69.20;;
17858;SDS011;35426;30.698;104.050;2023-03-21T12:42:10;152.10;;;70.43;;
17858;SDS011;35426;30.698;104.050;2023-03-21T12:45:12;143.90;;;68.40;;
17858;SDS011;35426;30.698;104.050;2023-03-21T12:48:18;142.77;;;71.23;;
17858;SDS011;35426;30.698;104.050;2023-03-21T12:51:21;143.17;;;67.33;;
17858;SDS011;35426;30.698;104.050;2023-03-21T12:54:12;146.03;;;70.40;;
17858;SDS011;35426;30.698;104.050;2023-03-21T12:57:08;147.83;;;71.40;;
17858;SDS011;35426;30.698;104.050;2023-03-21T12:59:59;146.03;;;70.23;;
17858;SDS011;35426;30.698;104.050;2023-03-21T13:02:46;143.27;;;67.80;;
17858;SDS011;35426;30.698;104.050;2023-03-21T13:05:28;140.40;;;67.50;;
17858;SDS011;35426;30.698;104.050;2023-03-21T13:08:10;140.40;;;66.87;;
17858;SDS011;35426;30.698;104.050;2023-03-21T13:10:59;147.80;;;70.47;;
17858;SDS011;35426;30.698;104.050;2023-03-21T13:13:42;149.27;;;70.97;;
17858;SDS011;35426;30.698;104.050;2023-03-21T13:16:27;149.33;;;70.10;;
17858;SDS011;35426;30.698;104.050;2023-03-21T13:19:30;141.83;;;69.03;;
17858;SDS011;35426;30.698;104.050;2023-03-21T13:22:14;146.13;;;71.60;;
17858;SDS011;35426;30.698;104.050;2023-03-21T13:25:15;145.30;;;69.67;;
17858;SDS011;35426;30.698;104.050;2023-03-21T13:28:04;142.90;;;70.60;;
17858;SDS011;35426;30.698;104.050;2023-03-21T13:30:50;144.70;;;70.30;;
17858;SDS011;35426;30.698;104.050;2023-03-21T13:33:29;143.27;;;70.33;;
17858;SDS011;35426;30.698;104.050;2023-03-21T13:36:17;142.60;;;69.83;;
17858;SDS011;35426;30.698;104.050;2023-03-21T13:39:15;137.13;;;68.23;;
17858;SDS011;35426;30.698;104.050;2023-03-21T13:45:10;141.37;;;67.33;;
17858;SDS011;35426;30.698;104.050;2023-03-21T13:48:28;143.37;;;68.73;;
17858;SDS011;35426;30.698;104.050;2023-03-21T13:51:49;141.90;;;68.93;;
17858;SDS011;35426;30.698;104.050;2023-03-21T13:54:49;140.10;;;67.03;;
17858;SDS011;35426;30.698;104.050;2023-03-21T13:57:37;155.00;;;71.07;;
17858;SDS011;35426;30.698;104.050;2023-03-21T14:03:12;143.13;;;68.70;;
17858;SDS011;35426;30.698;104.050;2023-03-21T14:06:01;145.17;;;68.03;;
17858;SDS011;35426;30.698;104.050;2023-03-21T14:08:44;146.83;;;68.40;;
17858;SDS011;35426;30.698;104.050;2023-03-21T14:11:28;140.83;;;66.97;;
17858;SDS011;35426;30.698;104.050;2023-03-21T14:14:12;140.10;;;68.77;;
17858;SDS011;35426;30.698;104.050;2023-03-21T14:16:58;136.57;;;65.87;;
17858;SDS011;35426;30.698;104.050;2023-03-21T14:19:36;135.47;;;67.07;;
17858;SDS011;35426;30.698;104.050;2023-03-21T14:22:17;129.93;;;65.73;;
17858;SDS011;35426;30.698;104.050;2023-03-21T14:25:02;141.53;;;69.00;;
17858;SDS011;35426;30.698;104.050;2023-03-21T14:27:47;145.47;;;69.50;;
17858;SDS011;35426;30.698;104.050;2023-03-21T14:30:28;154.47;;;71.13;;
17858;SDS011;35426;30.698;104.050;2023-03-21T14:33:22;148.77;;;71.03;;
17858;SDS011;35426;30.698;104.050;2023-03-21T14:36:05;146.97;;;70.43;;
17858;SDS011;35426;30.698;104.050;2023-03-21T14:38:56;149.60;;;72.50;;
17858;SDS011;35426;30.698;104.050;2023-03-21T14:41:48;152.53;;;74.10;;
17858;SDS011;35426;30.698;104.050;2023-03-21T14:44:32;160.53;;;75.50;;
17858;SDS011;35426;30.698;104.050;2023-03-21T14:47:26;166.87;;;79.00;;
17858;SDS011;35426;30.698;104.050;2023-03-21T14:50:11;159.93;;;80.77;;
17858;SDS011;35426;30.698;104.050;2023-03-21T14:53:02;169.63;;;82.13;;
17858;SDS011;35426;30.698;104.050;2023-03-21T14:55:46;166.77;;;80.73;;
17858;SDS011;35426;30.698;104.050;2023-03-21T14:58:34;161.77;;;83.57;;
17858;SDS011;35426;30.698;104.050;2023-03-21T15:01:20;166.07;;;83.13;;
17858;SDS011;35426;30.698;104.050;2023-03-21T15:04:03;176.23;;;84.07;;
17858;SDS011;35426;30.698;104.050;2023-03-21T15:06:54;179.87;;;87.87;;
17858;SDS011;35426;30.698;104.050;2023-03-21T15:09:38;165.90;;;83.87;;
17858;SDS011;35426;30.698;104.050;2023-03-21T15:12:27;175.57;;;85.17;;
17858;SDS011;35426;30.698;104.050;2023-03-21T15:15:06;175.97;;;87.23;;
17858;SDS011;35426;30.698;104.050;2023-03-21T15:17:48;176.43;;;87.77;;
17858;SDS011;35426;30.698;104.050;2023-03-21T15:20:31;167.83;;;85.77;;
17858;SDS011;35426;30.698;104.050;2023-03-21T15:23:20;180.63;;;89.53;;
17858;SDS011;35426;30.698;104.050;2023-03-21T15:26:12;166.70;;;85.30;;
17858;SDS011;35426;30.698;104.050;2023-03-21T15:28:55;187.17;;;89.07;;
17858;SDS011;35426;30.698;104.050;2023-03-21T15:31:40;176.50;;;87.20;;
17858;SDS011;35426;30.698;104.050;2023-03-21T15:34:28;173.20;;;88.03;;
17858;SDS011;35426;30.698;104.050;2023-03-21T15:37:22;172.57;;;85.47;;
17858;SDS011;35426;30.698;104.050;2023-03-21T15:40:20;175.50;;;84.10;;
17858;SDS011;35426;30.698;104.050;2023-03-21T15:43:11;180.97;;;87.17;;
17858;SDS011;35426;30.698;104.050;2023-03-21T15:46:01;184.13;;;86.63;;
17858;SDS011;35426;30.698;104.050;2023-03-21T15:49:17;168.97;;;84.63;;
17858;SDS011;35426;30.698;104.050;2023-03-21T15:54:51;174.40;;;84.70;;
17858;SDS011;35426;30.698;104.050;2023-03-21T15:57:38;175.83;;;87.13;;
17858;SDS011;35426;30.698;104.050;2023-03-21T16:00:31;177.23;;;86.83;;
17858;SDS011;35426;30.698;104.050;2023-03-21T16:03:29;182.73;;;89.43;;
17858;SDS011;35426;30.698;104.050;2023-03-21T16:06:16;181.90;;;86.43;;